createdAt,value
2023-04-10T01:08:23.483Z,70.43
2023-04-10T01:13:27.206Z,70.66
2023-04-10T01:18:45.796Z,70.46
2023-04-10T01:24:10.616Z,70.99
2023-04-10T01:29:15.307Z,71.00
2023-04-10T01:34:21.994Z,70.65
2023-04-10T01:39:20.200Z,70.85
2023-04-10T01:44:21.753Z,71.00
2023-04-10T01:49:18.784Z,71.26
2023-04-10T01:54:16.220Z,70.95
2023-04-10T01:59:52.083Z,71.18
2023-04-10T02:05:52.191Z,71.48
2023-04-10T02:36:41.711Z,71.72
2023-04-10T02:56:21.190Z,71.51
2023-04-10T03:15:08.649Z,71.67
2023-04-10T03:48:49.356Z,71.68
2023-04-10T04:18:32.692Z,71.86
2023-04-10T04:30:31.436Z,72.05
2023-04-10T06:49:48.847Z,67.99
2023-04-10T07:01:17.586Z,67.81
2023-04-10T09:08:31.669Z,60.81
2023-04-10T09:13:43.118Z,59.98
2023-04-10T09:51:56.366Z,57.93
2023-04-10T11:29:03.103Z,48.32
2023-04-10T13:35:32.451Z,40.39
2023-04-10T14:32:27.206Z,40.33
2023-04-10T14:37:23.744Z,40.05
2023-04-10T14:42:20.324Z,39.81
2023-04-10T14:47:16.776Z,40.40
2023-04-10T14:52:13.282Z,40.47
2023-04-10T15:36:34.400Z,39.97
2023-04-10T16:30:14.173Z,40.25
2023-04-10T16:35:10.777Z,40.22
2023-04-10T17:05:47.239Z,41.96
2023-04-10T17:42:14.706Z,42.76
2023-04-10T17:47:11.516Z,43.16
2023-04-10T17:52:08.018Z,43.33
2023-04-10T17:57:04.764Z,44.01
2023-04-10T18:02:01.287Z,43.93
2023-04-10T19:48:09.719Z,46.77
2023-04-10T19:53:06.248Z,46.58
2023-04-10T19:58:02.625Z,46.82
2023-04-10T20:02:59.381Z,46.66
2023-04-10T20:08:32.743Z,46.78
2023-04-10T20:13:35.244Z,46.75
2023-04-10T20:18:35.480Z,47.13
2023-04-10T20:23:35.375Z,46.66
2023-04-10T20:28:45.625Z,46.73
2023-04-10T20:33:42.479Z,46.92
2023-04-10T20:38:45.376Z,46.54
2023-04-10T20:43:58.155Z,46.95
2023-04-10T20:54:36.375Z,46.77
2023-04-10T21:06:25.597Z,46.85
2023-04-10T21:17:04.917Z,47.17
2023-04-10T21:22:10.890Z,46.99
2023-04-10T21:27:26.889Z,47.16
2023-04-10T21:32:40.629Z,47.33
2023-04-10T21:43:40.231Z,47.55
2023-04-10T21:54:15.816Z,49.24
2023-04-10T21:59:14.606Z,49.99
2023-04-10T22:04:30.857Z,50.73
2023-04-10T22:09:59.514Z,51.46
2023-04-10T22:14:59.120Z,51.81
2023-04-10T22:20:12.184Z,52.78
2023-04-10T22:25:19.361Z,53.71
2023-04-10T22:30:38.988Z,53.93
2023-04-10T22:35:38.293Z,54.75
2023-04-10T22:40:41.017Z,55.51
2023-04-10T22:46:02.304Z,56.05
2023-04-10T22:51:25.979Z,56.61
2023-04-10T22:56:26.739Z,57.24
2023-04-10T23:01:33.869Z,58.37
2023-04-10T23:06:31.653Z,58.44
2023-04-10T23:11:29.322Z,59.08
2023-04-10T23:16:32.448Z,59.41
2023-04-10T23:21:40.111Z,60.10
2023-04-10T23:26:46.995Z,60.44
2023-04-10T23:31:48.351Z,61.12
2023-04-10T23:37:02.524Z,61.84
2023-04-10T23:42:31.276Z,62.22
2023-04-10T23:47:57.666Z,62.54
2023-04-10T23:53:01.824Z,62.77
2023-04-10T23:58:05.322Z,63.47
